Time;durP1;ratioP1;P1;durP2;ratioP2;P2;SDS_P1;SDS_P2;PMS_P1;PMS_P2;Temp;Humidity;BMP_temperature;BMP_pressure;BME280_temperature;BME280_humidity;BME280_pressure;Samples;Min_cycle;Max_cycle;Signal;HPM_P1;HPM_P2
2022/04/03 00:00:41;;;;;;;;;;;;;;;1.74;100.00;102475.91;5134240;28;19915;-69
2022/04/03 00:03:07;;;;;;;;;;;;;;;1.75;100.00;102463.69;5111032;28;19922;-68
2022/04/03 00:05:38;;;;;;;;;;;;;;;1.91;100.00;102469.22;5131380;28;19939;-68
2022/04/03 00:08:06;;;;;;;;;;;;;;;1.96;100.00;102466.69;5112953;28;19916;-68
2022/04/03 00:10:32;;;;;;;;;;;;;;;1.91;100.00;102458.75;5134038;28;19915;-68
2022/04/03 00:12:58;;;;;;;;;;;;;;;1.88;100.00;102457.81;5134173;28;19923;-68
2022/04/03 00:15:23;;;;;;;;;;;;;;;1.86;100.00;102467.41;5131195;28;19915;-69
2022/04/03 00:17:48;;;;;;;;;;;;;;;1.83;100.00;102462.09;5134008;28;20003;-69
2022/04/03 00:20:14;;;;;;;;;;;;;;;1.80;100.00;102462.06;5134123;28;19920;-69
2022/04/03 00:22:39;;;;;;;;;;;;;;;1.73;100.00;102461.06;5115669;28;19915;-69
2022/04/03 00:25:05;;;;;;;;;;;;;;;1.62;100.00;102465.19;5117938;27;20017;-69
2022/04/03 00:27:30;;;;;;;;;;;;;;;1.52;100.00;102465.84;5131020;27;20402;-68
2022/04/03 00:29:55;;;;;;;;;;;;;;;1.43;100.00;102460.44;5135044;27;19923;-68
2022/04/03 00:32:21;;;;;;;;;;;;;;;1.37;100.00;102463.81;5137912;27;19916;-69
2022/04/03 00:34:46;;;;;;;;;;;;;;;1.24;100.00;102466.16;5119300;27;19919;-68
2022/04/03 00:37:12;;;;;;;;;;;;;;;1.09;100.00;102461.47;5119150;27;19915;-68
2022/04/03 00:39:37;;;;;;;;;;;;;;;0.97;100.00;102456.00;5134609;27;19916;-68
2022/04/03 00:42:04;;;;;;;;;;;;;;;0.86;100.00;102461.81;5137603;27;19915;-69
2022/04/03 00:44:30;;;;;;;;;;;;;;;0.79;100.00;102457.31;5137594;27;19919;-68
2022/04/03 00:46:57;;;;;;;;;;;;;;;0.66;100.00;102463.09;5119320;27;19934;-68
2022/04/03 00:49:22;;;;;;;;;;;;;;;0.51;100.00;102458.41;5119103;27;19915;-68
2022/04/03 00:51:48;;;;;;;;;;;;;;;0.43;100.00;102461.66;5136989;27;20366;-69
2022/04/03 00:54:13;;;;;;;;;;;;;;;0.30;100.00;102463.09;5113738;27;19965;-68
2022/04/03 00:56:39;;;;;;;;;;;;;;;0.16;100.00;102468.84;5137272;27;19947;-68
2022/04/03 00:59:04;;;;;;;;;;;;;;;0.08;100.00;102470.38;5134664;27;19923;-67
2022/04/03 01:01:29;;;;;;;;;;;;;;;0.01;100.00;102474.56;5137046;27;19922;-68
2022/04/03 01:03:54;;;;;;;;;;;;;;;0.10;100.00;102474.78;5137220;27;19915;-68
2022/04/03 01:06:20;;;;;;;;;;;;;;;0.04;100.00;102479.84;5134341;27;19964;-68
2022/04/03 01:08:45;;;;;;;;;;;;;;;0.02;100.00;102476.31;5136951;27;20290;-68
2022/04/03 01:11:13;;;;;;;;;;;;;;;0.15;100.00;102480.13;5137184;27;19938;-68
2022/04/03 01:13:45;;;;;;;;;;;;;;;0.32;100.00;102487.53;5135100;27;19916;-67
2022/04/03 01:16:11;;;;;;;;;;;;;;;0.45;100.00;102478.28;5112705;27;19921;-68
2022/04/03 01:18:36;;;;;;;;;;;;;;;0.35;100.00;102478.91;5118754;27;19927;-68
2022/04/03 01:21:03;;;;;;;;;;;;;;;0.20;100.00;102482.03;5115335;27;20639;-67
2022/04/03 01:23:28;;;;;;;;;;;;;;;0.07;100.00;102482.53;5118432;27;20387;-68
2022/04/03 01:25:53;;;;;;;;;;;;;;;-0.07;100.00;102489.13;5136518;27;19922;-69
2022/04/03 01:28:18;;;;;;;;;;;;;;;-0.20;100.00;102480.09;5114928;27;19915;-68
2022/04/03 01:30:44;;;;;;;;;;;;;;;-0.31;100.00;102481.53;5134094;27;20010;-69
2022/04/03 01:33:24;;;;;;;;;;;;;;;-0.45;100.00;102482.88;5118108;27;20378;-69
2022/04/03 01:35:49;;;;;;;;;;;;;;;-0.57;100.00;102479.91;5135785;27;19921;-69
2022/04/03 01:38:15;;;;;;;;;;;;;;;-0.64;100.00;102485.81;5115339;27;20417;-69
2022/04/03 01:46:46;;;;;;;;;;;;;;;-0.66;100.00;102481.41;5135998;27;19972;-69
2022/04/03 01:49:11;;;;;;;;;;;;;;;-0.71;100.00;102469.94;5118084;27;19916;-69
2022/04/03 01:51:36;;;;;;;;;;;;;;;-0.65;100.00;102472.72;5118060;27;20289;-70
2022/04/03 01:54:01;;;;;;;;;;;;;;;-0.70;100.00;102472.59;5136162;27;19922;-69
2022/04/03 01:56:27;;;;;;;;;;;;;;;-0.76;100.00;102472.44;5117183;27;20006;-68
2022/04/03 01:58:52;;;;;;;;;;;;;;;-0.77;100.00;102477.59;5133386;27;19916;-69
2022/04/03 02:01:17;;;;;;;;;;;;;;;-0.82;100.00;102473.97;5133414;27;19955;-69
2022/04/03 02:03:43;;;;;;;;;;;;;;;-0.88;100.00;102479.00;5136210;27;19915;-69
2022/04/03 02:06:08;;;;;;;;;;;;;;;-0.93;100.00;102475.38;5136021;27;19915;-69
2022/04/03 02:08:33;;;;;;;;;;;;;;;-0.99;100.00;102476.06;5117665;27;19915;-69
2022/04/03 02:10:58;;;;;;;;;;;;;;;-1.03;100.00;102470.72;5136004;27;19922;-69
2022/04/03 02:13:24;;;;;;;;;;;;;;;-1.02;100.00;102475.97;5135847;27;19915;-69
2022/04/03 02:15:49;;;;;;;;;;;;;;;-1.04;100.00;102492.41;5136114;27;19915;-68
2022/04/03 02:18:14;;;;;;;;;;;;;;;-1.06;100.00;102479.34;5135922;27;19916;-69
2022/04/03 02:20:39;;;;;;;;;;;;;;;-1.01;100.00;102475.13;5133861;27;19920;-68
2022/04/03 02:23:05;;;;;;;;;;;;;;;-0.94;100.00;102476.19;5135367;27;19923;-68
2022/04/03 02:25:30;;;;;;;;;;;;;;;-1.00;100.00;102484.72;5117352;27;20380;-68
2022/04/03 02:28:31;;;;;;;;;;;;;;;-1.08;100.00;102485.31;5117317;27;19926;-68
2022/04/03 02:30:56;;;;;;;;;;;;;;;-1.14;100.00;102490.34;5133594;27;19919;-68
2022/04/03 02:33:29;;;;;;;;;;;;;;;-1.21;100.00;102489.28;5135585;27;19941;-68
2022/04/03 02:35:55;;;;;;;;;;;;;;;-1.25;100.00;102489.16;5133166;27;19916;-68
2022/04/03 02:38:20;;;;;;;;;;;;;;;-1.33;100.00;102491.53;5111249;27;20393;-68
2022/04/03 02:40:45;;;;;;;;;;;;;;;-1.37;100.00;102494.84;5135293;27;19984;-67
2022/04/03 02:43:11;;;;;;;;;;;;;;;-1.36;100.00;102491.41;5134601;27;19915;-69
2022/04/03 02:45:37;;;;;;;;;;;;;;;-1.39;100.00;102488.72;5130415;27;19926;-68
2022/04/03 02:48:02;;;;;;;;;;;;;;;-1.44;100.00;102490.28;5115914;27;19951;-68
2022/04/03 02:50:27;;;;;;;;;;;;;;;-1.47;100.00;102492.81;5099444;27;19963;-69
2022/04/03 02:52:54;;;;;;;;;;;;;;;-1.47;100.00;102500.63;5135258;27;19915;-69
2022/04/03 02:55:20;;;;;;;;;;;;;;;-1.53;100.00;102495.22;5096395;28;19926;-68
2022/04/03 02:57:45;;;;;;;;;;;;;;;-1.59;100.00;102490.69;5115335;27;19920;-68
2022/04/03 03:00:14;;;;;;;;;;;;;;;-1.67;100.00;102496.50;5111063;27;19962;-68
2022/04/03 03:02:40;;;;;;;;;;;;;;;-1.69;100.00;102498.16;5116678;27;20328;-68
2022/04/03 03:05:05;;;;;;;;;;;;;;;-1.72;100.00;102500.66;5134908;27;19976;-68
2022/04/03 03:07:38;;;;;;;;;;;;;;;-1.75;100.00;102504.03;5132035;27;20294;-69
2022/04/03 03:10:04;;;;;;;;;;;;;;;-1.77;100.00;102494.41;5115914;27;20308;-68
2022/04/03 03:12:29;;;;;;;;;;;;;;;-1.79;100.00;102504.78;5134976;27;20006;-68
2022/04/03 03:14:56;;;;;;;;;;;;;;;-1.82;100.00;102509.88;5116157;27;19938;-68
2022/04/03 03:17:22;;;;;;;;;;;;;;;-1.85;100.00;102506.28;5132202;27;19916;-67
2022/04/03 03:19:47;;;;;;;;;;;;;;;-1.86;100.00;102510.59;5134677;27;19926;-67
2022/04/03 03:22:12;;;;;;;;;;;;;;;-1.88;100.00;102508.78;5134987;27;19938;-67
2022/04/03 03:24:37;;;;;;;;;;;;;;;-1.86;100.00;102512.34;5131232;27;19916;-68
2022/04/03 03:27:02;;;;;;;;;;;;;;;-1.83;100.00;102510.69;5114491;28;19923;-68
2022/04/03 03:29:28;;;;;;;;;;;;;;;-1.84;100.00;102513.25;5096072;28;20374;-68
2022/04/03 03:31:53;;;;;;;;;;;;;;;-1.87;100.00;102518.34;5114282;28;19916;-69
2022/04/03 03:34:18;;;;;;;;;;;;;;;-1.92;100.00;102514.69;5114341;28;19922;-68
2022/04/03 03:36:43;;;;;;;;;;;;;;;-1.95;100.00;102522.41;5079248;28;20366;-68
2022/04/03 03:39:08;;;;;;;;;;;;;;;-1.97;100.00;102516.28;5114261;28;19916;-68
2022/04/03 03:41:34;;;;;;;;;;;;;;;-2.07;100.00;102525.50;5114209;28;20003;-69
2022/04/03 03:43:59;;;;;;;;;;;;;;;-2.21;100.00;102520.63;5114121;28;20327;-68
2022/04/03 03:46:24;;;;;;;;;;;;;;;-2.31;100.00;102521.13;5114220;28;19915;-68
2022/04/03 03:48:49;;;;;;;;;;;;;;;-2.28;100.00;102535.13;5095957;28;19938;-68
2022/04/03 03:51:15;;;;;;;;;;;;;;;-2.25;100.00;102526.53;5114148;28;20343;-68
2022/04/03 03:53:40;;;;;;;;;;;;;;;-2.25;100.00;102529.13;5114093;28;19961;-70
2022/04/03 03:56:05;;;;;;;;;;;;;;;-2.26;100.00;102520.47;5114164;28;20396;-67
2022/04/03 03:58:30;;;;;;;;;;;;;;;-2.27;100.00;102531.69;5114298;28;19922;-67
2022/04/03 04:00:56;;;;;;;;;;;;;;;-2.31;100.00;102534.13;5118096;28;19927;-67
2022/04/03 04:03:21;;;;;;;;;;;;;;;-2.32;100.00;102541.06;5101745;28;19967;-68
2022/04/03 04:05:46;;;;;;;;;;;;;;;-2.22;100.00;102544.88;5101305;28;19916;-68
2022/04/03 04:08:11;;;;;;;;;;;;;;;-2.22;100.00;102539.69;5100169;28;20450;-68
2022/04/03 04:10:36;;;;;;;;;;;;;;;-1.93;100.00;102552.00;5117960;28;19916;-68
2022/04/03 04:13:02;;;;;;;;;;;;;;;-1.74;100.00;102554.41;5099948;28;19915;-68
2022/04/03 04:15:28;;;;;;;;;;;;;;;-1.70;100.00;102562.38;5118022;28;19919;-67
2022/04/03 04:17:57;;;;;;;;;;;;;;;-1.75;100.00;102560.47;5117753;28;19939;-68
2022/04/03 04:20:22;;;;;;;;;;;;;;;-1.86;100.00;102564.41;5117932;28;19999;-68
2022/04/03 04:22:49;;;;;;;;;;;;;;;-1.96;100.00;102570.13;5133796;27;20015;-68
2022/04/03 04:25:15;;;;;;;;;;;;;;;-2.05;100.00;102568.06;5118043;28;20000;-68
2022/04/03 04:27:44;;;;;;;;;;;;;;;-2.08;100.00;102564.47;5133943;27;20319;-68
2022/04/03 04:30:10;;;;;;;;;;;;;;;-2.04;100.00;102571.56;5117958;28;19915;-68
2022/04/03 04:32:35;;;;;;;;;;;;;;;-2.09;100.00;102573.09;5117715;28;19919;-68
2022/04/03 04:35:00;;;;;;;;;;;;;;;-2.14;100.00;102572.03;5099143;28;19920;-67
2022/04/03 04:37:26;;;;;;;;;;;;;;;-2.12;100.00;102578.19;5099235;28;19919;-68
2022/04/03 04:39:52;;;;;;;;;;;;;;;-2.14;100.00;102578.16;5117539;28;19955;-67
2022/04/03 04:42:18;;;;;;;;;;;;;;;-2.12;100.00;102575.59;5133174;27;19962;-68
2022/04/03 04:44:43;;;;;;;;;;;;;;;-2.09;100.00;102579.22;5117400;28;19916;-69
2022/04/03 04:47:08;;;;;;;;;;;;;;;-2.07;100.00;102577.56;5117360;28;20374;-69
2022/04/03 04:49:34;;;;;;;;;;;;;;;-1.92;100.00;102585.88;5117336;28;20011;-69
2022/04/03 04:51:59;;;;;;;;;;;;;;;-1.94;100.00;102582.34;5117228;28;19954;-68
2022/04/03 04:54:26;;;;;;;;;;;;;;;-2.00;100.00;102582.13;5098894;28;20282;-68
2022/04/03 04:56:51;;;;;;;;;;;;;;;-2.06;100.00;102584.50;5118363;27;20315;-69
2022/04/03 04:59:17;;;;;;;;;;;;;;;-2.05;100.00;102586.28;5137608;27;19959;-69
2022/04/03 05:01:42;;;;;;;;;;;;;;;-2.02;100.00;102588.13;5137539;27;19964;-69
2022/04/03 05:04:07;;;;;;;;;;;;;;;-2.03;100.00;102584.63;5137399;27;19915;-70
2022/04/03 05:06:34;;;;;;;;;;;;;;;-1.98;100.00;102590.00;5137615;27;20007;-69
2022/04/03 05:08:59;;;;;;;;;;;;;;;-2.07;100.00;102592.28;5118917;27;19915;-69
2022/04/03 05:11:25;;;;;;;;;;;;;;;-2.08;100.00;102591.38;5117756;27;20419;-69
2022/04/03 05:13:50;;;;;;;;;;;;;;;-2.07;100.00;102587.06;5137182;27;19917;-69
2022/04/03 05:16:15;;;;;;;;;;;;;;;-1.96;100.00;102594.44;5137141;27;19919;-68
2022/04/03 05:18:41;;;;;;;;;;;;;;;-1.95;100.00;102593.59;5137297;27;19915;-69
2022/04/03 05:21:07;;;;;;;;;;;;;;;-1.99;100.00;102596.03;5118319;27;20063;-69
2022/04/03 05:23:33;;;;;;;;;;;;;;;-1.98;100.00;102598.69;5118464;27;19916;-68
2022/04/03 05:25:58;;;;;;;;;;;;;;;-1.87;100.00;102601.66;5137176;27;20104;-69
2022/04/03 05:28:23;;;;;;;;;;;;;;;-1.89;100.00;102595.56;5137021;27;20381;-69
2022/04/03 05:30:48;;;;;;;;;;;;;;;-1.88;100.00;102594.69;5136401;27;19927;-70
2022/04/03 05:33:14;;;;;;;;;;;;;;;-1.87;100.00;102597.34;5118270;27;19971;-69
2022/04/03 05:35:40;;;;;;;;;;;;;;;-1.87;100.00;102599.06;5136909;27;19981;-69
2022/04/03 05:38:05;;;;;;;;;;;;;;;-1.87;100.00;102601.66;5126898;27;19919;-69
2022/04/03 05:40:30;;;;;;;;;;;;;;;-1.82;100.00;102606.22;5097649;28;20379;-69
2022/04/03 05:42:56;;;;;;;;;;;;;;;-1.88;100.00;102605.13;5113324;27;20358;-69
2022/04/03 05:45:21;;;;;;;;;;;;;;;-1.86;100.00;102606.06;5136081;27;19919;-69
2022/04/03 05:47:46;;;;;;;;;;;;;;;-1.82;100.00;102611.44;5133546;27;19920;-69
2022/04/03 05:50:12;;;;;;;;;;;;;;;-1.80;100.00;102614.09;5136439;27;20308;-69
2022/04/03 05:52:42;;;;;;;;;;;;;;;-1.79;100.00;102608.03;5117421;27;19916;-68
2022/04/03 05:55:08;;;;;;;;;;;;;;;-1.73;100.00;102610.84;5132209;27;19916;-68
2022/04/03 05:57:34;;;;;;;;;;;;;;;-1.69;100.00;102611.00;5117622;27;20018;-69
2022/04/03 05:59:59;;;;;;;;;;;;;;;-1.60;100.00;102613.94;5130436;27;19962;-68
2022/04/03 06:02:24;;;;;;;;;;;;;;;-1.49;100.00;102622.13;5131910;27;19926;-68
2022/04/03 06:04:49;;;;;;;;;;;;;;;-1.23;100.00;102629.09;5113674;27;19915;-69
2022/04/03 06:07:14;;;;;;;;;;;;;;;-1.11;100.00;102629.50;5117089;27;20357;-68
2022/04/03 06:09:40;;;;;;;;;;;;;;;-1.13;100.00;102627.69;5117651;27;20014;-68
2022/04/03 06:12:05;;;;;;;;;;;;;;;-1.15;100.00;102635.44;5136311;27;19988;-68
2022/04/03 06:14:30;;;;;;;;;;;;;;;-1.10;100.00;102639.09;5116440;27;19967;-68
2022/04/03 06:16:55;;;;;;;;;;;;;;;-1.04;100.00;102641.91;5133009;27;19920;-68
2022/04/03 06:19:21;;;;;;;;;;;;;;;-0.93;100.00;102637.06;5130327;27;19924;-69
2022/04/03 06:21:46;;;;;;;;;;;;;;;-0.91;100.00;102656.22;5094149;27;19931;-68
2022/04/03 06:24:12;;;;;;;;;;;;;;;-0.88;100.00;102659.81;5111101;27;19919;-67
2022/04/03 06:26:37;;;;;;;;;;;;;;;-0.84;100.00;102653.00;5129793;27;19937;-68
2022/04/03 06:29:02;;;;;;;;;;;;;;;-0.81;100.00;102653.97;5132024;27;19915;-69
2022/04/03 06:31:29;;;;;;;;;;;;;;;-0.73;100.00;102662.94;5115574;27;20142;-69
2022/04/03 06:33:54;;;;;;;;;;;;;;;-0.62;100.00;102660.66;5116493;27;19958;-68
2022/04/03 06:36:19;;;;;;;;;;;;;;;-0.48;100.00;102675.91;5115131;27;19915;-69
2022/04/03 06:38:44;;;;;;;;;;;;;;;-0.41;100.00;102671.78;5126178;27;19920;-68
2022/04/03 06:41:10;;;;;;;;;;;;;;;-0.13;100.00;102675.25;5117306;27;19931;-68
2022/04/03 06:43:35;;;;;;;;;;;;;;;0.03;100.00;102681.81;5135464;27;19926;-68
2022/04/03 06:46:00;;;;;;;;;;;;;;;0.32;100.00;102683.53;5135474;27;19974;-68
2022/04/03 06:48:26;;;;;;;;;;;;;;;0.68;100.00;102689.75;5135850;27;19919;-67
2022/04/03 06:50:52;;;;;;;;;;;;;;;0.81;100.00;102688.34;5106766;27;20034;-68
2022/04/03 06:53:17;;;;;;;;;;;;;;;1.25;100.00;102687.75;5130194;27;19923;-68
2022/04/03 06:55:42;;;;;;;;;;;;;;;1.21;100.00;102672.81;5125684;27;19919;-70
2022/04/03 06:58:07;;;;;;;;;;;;;;;1.41;100.00;102659.38;5125394;27;19924;-68
2022/04/03 07:00:34;;;;;;;;;;;;;;;1.49;100.00;102649.06;5115049;28;19927;-68
2022/04/03 07:02:59;;;;;;;;;;;;;;;1.59;100.00;102643.19;5096740;28;20362;-68
2022/04/03 07:05:24;;;;;;;;;;;;;;;1.69;100.00;102633.81;5102991;27;20041;-68
2022/04/03 07:07:53;;;;;;;;;;;;;;;1.95;100.00;102628.28;5124921;27;20014;-68
2022/04/03 07:10:18;;;;;;;;;;;;;;;2.19;100.00;102618.25;5110091;27;19994;-68
2022/04/03 07:12:43;;;;;;;;;;;;;;;2.33;100.00;102611.53;5116542;27;19988;-68
2022/04/03 07:15:11;;;;;;;;;;;;;;;2.39;100.00;102611.69;5116580;27;19927;-68
2022/04/03 07:17:37;;;;;;;;;;;;;;;2.45;100.00;102603.03;5135584;27;19976;-68
2022/04/03 07:20:02;;;;;;;;;;;;;;;2.72;100.00;102603.53;5135063;27;20385;-69
2022/04/03 07:22:27;;;;;;;;;;;;;;;2.69;100.00;102598.22;5135963;27;20255;-68
2022/04/03 07:24:53;;;;;;;;;;;;;;;2.92;100.00;102589.88;5107761;27;19916;-70
2022/04/03 07:27:18;;;;;;;;;;;;;;;2.95;100.00;102587.28;5110610;27;19926;-69
2022/04/03 07:29:43;;;;;;;;;;;;;;;3.11;100.00;102583.16;5135508;27;19967;-71
2022/04/03 07:32:08;;;;;;;;;;;;;;;3.25;100.00;102559.75;5135115;27;19926;-69
2022/04/03 07:34:34;;;;;;;;;;;;;;;3.21;100.00;102571.06;5134210;27;20234;-69
2022/04/03 07:36:59;;;;;;;;;;;;;;;3.43;100.00;102557.38;5117323;27;20370;-69
2022/04/03 07:39:26;;;;;;;;;;;;;;;3.67;100.00;102560.34;5122235;28;19916;-68
2022/04/03 07:41:51;;;;;;;;;;;;;;;3.92;100.00;102542.25;5101593;28;19920;-69
2022/04/03 07:44:16;;;;;;;;;;;;;;;3.77;100.00;102541.16;5129370;28;20006;-67
2022/04/03 07:46:42;;;;;;;;;;;;;;;3.78;100.00;102535.06;5114149;28;19920;-68
2022/04/03 07:49:07;;;;;;;;;;;;;;;3.74;100.00;102528.00;5114028;28;19923;-67
2022/04/03 07:51:32;;;;;;;;;;;;;;;3.77;100.00;102525.41;5131780;28;20641;-69
2022/04/03 07:53:57;;;;;;;;;;;;;;;3.70;100.00;102518.34;5116082;28;19915;-69
2022/04/03 07:56:23;;;;;;;;;;;;;;;3.79;100.00;102516.69;5134731;28;19980;-68
2022/04/03 07:58:48;;;;;;;;;;;;;;;3.98;100.00;102517.78;5134897;28;19916;-68
2022/04/03 08:01:13;;;;;;;;;;;;;;;4.02;100.00;102504.66;5116493;28;19922;-69
2022/04/03 08:03:39;;;;;;;;;;;;;;;4.21;100.00;102514.50;5122312;28;19965;-68
2022/04/03 08:06:04;;;;;;;;;;;;;;;4.38;100.00;102517.31;5114126;28;19969;-69
2022/04/03 08:08:30;;;;;;;;;;;;;;;4.36;100.00;102521.69;5119142;28;19923;-69
2022/04/03 08:10:56;;;;;;;;;;;;;;;4.44;100.00;102512.09;5096298;28;19971;-67
2022/04/03 08:13:21;;;;;;;;;;;;;;;4.58;100.00;102507.84;5122731;28;20363;-67
2022/04/03 08:15:47;;;;;;;;;;;;;;;4.73;100.00;102515.84;5123408;28;19955;-68
2022/04/03 08:18:12;;;;;;;;;;;;;;;4.89;100.00;102515.09;5116209;28;19920;-72
2022/04/03 08:20:38;;;;;;;;;;;;;;;4.99;100.00;102513.41;5110882;28;20269;-68
2022/04/03 08:23:05;;;;;;;;;;;;;;;5.20;100.00;102506.50;5129215;28;19916;-70
2022/04/03 08:25:31;;;;;;;;;;;;;;;5.41;100.00;102509.25;5115018;28;20362;-69
2022/04/03 08:27:57;;;;;;;;;;;;;;;5.52;100.00;102514.56;5133200;28;20307;-68
2022/04/03 08:30:26;;;;;;;;;;;;;;;5.71;100.00;102513.78;5114940;28;20002;-68
2022/04/03 08:32:51;;;;;;;;;;;;;;;5.70;100.00;102515.56;5130942;28;19980;-69
2022/04/03 08:35:18;;;;;;;;;;;;;;;5.91;100.00;102509.47;5112720;28;19920;-76
2022/04/03 08:37:44;;;;;;;;;;;;;;;5.87;100.00;102521.78;5120327;28;19916;-68
2022/04/03 08:40:10;;;;;;;;;;;;;;;6.01;100.00;102520.06;5139412;28;19922;-70
2022/04/03 08:42:35;;;;;;;;;;;;;;;6.11;100.00;102513.91;5118789;28;19926;-71
2022/04/03 08:45:01;;;;;;;;;;;;;;;6.39;100.00;102509.59;5103003;28;19969;-69
2022/04/03 08:47:27;;;;;;;;;;;;;;;6.61;100.00;102510.47;5122817;28;19915;-71
2022/04/03 08:49:57;;;;;;;;;;;;;;;6.92;100.00;102509.56;5120147;27;19919;-69
2022/04/03 08:52:22;;;;;;;;;;;;;;;7.03;100.00;102506.03;5141035;27;19907;-69
2022/04/03 08:54:48;;;;;;;;;;;;;;;7.20;100.00;102508.66;5139970;27;19945;-69
2022/04/03 08:57:14;;;;;;;;;;;;;;;7.70;100.00;102512.00;5118656;27;19926;-70
2022/04/03 08:59:39;;;;;;;;;;;;;;;8.11;100.00;102502.06;5133056;27;19926;-69
2022/04/03 09:02:04;;;;;;;;;;;;;;;8.46;100.00;102504.50;5130318;27;20294;-69
2022/04/03 09:04:31;;;;;;;;;;;;;;;9.28;100.00;102503.72;5127369;27;19958;-68
2022/04/03 09:06:57;;;;;;;;;;;;;;;9.25;100.00;102495.78;5121376;27;19919;-67
2022/04/03 09:09:23;;;;;;;;;;;;;;;8.97;100.00;102496.09;5135317;27;19967;-66
2022/04/03 09:12:08;;;;;;;;;;;;;;;8.70;100.00;102491.03;5141893;27;19922;-66
2022/04/03 09:14:34;;;;;;;;;;;;;;;8.54;100.00;102490.31;5119300;28;20738;-67
2022/04/03 09:16:59;;;;;;;;;;;;;;;7.99;100.00;102493.34;5120305;28;19931;-67
2022/04/03 09:19:32;;;;;;;;;;;;;;;8.12;100.00;102493.25;5124810;27;19930;-68
2022/04/03 09:21:57;;;;;;;;;;;;;;;7.87;100.00;102488.97;5131813;27;19927;-66
2022/04/03 09:24:22;;;;;;;;;;;;;;;7.35;100.00;102490.97;5131990;27;19924;-66
2022/04/03 09:26:56;;;;;;;;;;;;;;;7.20;100.00;102495.44;5129295;27;19919;-67
2022/04/03 09:29:21;;;;;;;;;;;;;;;7.25;100.00;102491.00;5128827;27;19915;-69
2022/04/03 09:31:47;;;;;;;;;;;;;;;7.34;100.00;102488.34;5108100;27;19968;-67
2022/04/03 09:34:19;;;;;;;;;;;;;;;7.66;100.00;102489.97;5136260;27;19916;-67
2022/04/03 09:36:54;;;;;;;;;;;;;;;7.47;100.00;102490.03;5118309;27;20409;-71
2022/04/03 09:39:24;;;;;;;;;;;;;;;7.56;100.00;102484.72;5133206;27;19916;-69
2022/04/03 09:42:05;;;;;;;;;;;;;;;7.59;100.00;102482.97;5128511;27;19927;-72
2022/04/03 09:44:35;;;;;;;;;;;;;;;8.11;100.00;102483.56;5115837;28;19919;-70
2022/04/03 09:47:10;;;;;;;;;;;;;;;8.40;100.00;102483.38;5143545;27;19962;-72
2022/04/03 09:49:36;;;;;;;;;;;;;;;8.62;100.00;102475.22;5124863;27;19955;-68
2022/04/03 09:52:01;;;;;;;;;;;;;;;8.88;100.00;102480.28;5141741;27;19930;-70
2022/04/03 09:54:26;;;;;;;;;;;;;;;9.14;100.00;102481.78;5144092;27;19916;-71
2022/04/03 09:56:51;;;;;;;;;;;;;;;8.65;100.00;102474.34;5118636;27;19938;-71
2022/04/03 09:59:17;;;;;;;;;;;;;;;8.40;100.00;102478.94;5118637;27;19972;-70
2022/04/03 10:01:42;;;;;;;;;;;;;;;8.66;100.00;102479.63;5119960;27;19957;-69
2022/04/03 10:04:08;;;;;;;;;;;;;;;8.18;100.00;102474.66;5112635;27;19919;-67
2022/04/03 10:06:34;;;;;;;;;;;;;;;8.45;100.00;102463.91;5135595;27;19924;-69
2022/04/03 10:09:00;;;;;;;;;;;;;;;9.19;100.00;102472.00;5131380;27;19926;-69
2022/04/03 10:11:26;;;;;;;;;;;;;;;9.05;100.00;102463.34;5139517;27;19926;-70
2022/04/03 10:13:51;;;;;;;;;;;;;;;8.63;100.00;102463.75;5133738;27;20434;-67
2022/04/03 10:16:18;;;;;;;;;;;;;;;8.40;100.00;102464.84;5137613;27;19919;-72
2022/04/03 10:18:44;;;;;;;;;;;;;;;8.48;100.00;102463.88;5102364;27;19927;-70
2022/04/03 10:21:24;;;;;;;;;;;;;;;8.70;100.00;102453.97;5135208;27;19919;-69
2022/04/03 10:23:52;;;;;;;;;;;;;;;9.39;100.00;102457.66;5120253;27;19923;-69
2022/04/03 10:26:18;;;;;;;;;;;;;;;9.75;100.00;102458.06;5117847;27;19958;-68
2022/04/03 10:28:54;;;;;;;;;;;;;;;10.34;100.00;102450.09;5136008;27;19923;-69
2022/04/03 10:31:19;;;;;;;;;;;;;;;10.59;100.00;102450.56;5136506;27;19916;-69
2022/04/03 10:33:48;;;;;;;;;;;;;;;10.58;100.00;102448.81;5135859;27;19942;-70
2022/04/03 10:36:13;;;;;;;;;;;;;;;10.42;100.00;102436.69;5118550;27;19969;-69
2022/04/03 10:38:42;;;;;;;;;;;;;;;10.35;100.00;102430.59;5121692;27;19944;-68
2022/04/03 10:41:07;;;;;;;;;;;;;;;9.96;100.00;102427.69;5133235;27;19919;-68
2022/04/03 10:43:36;;;;;;;;;;;;;;;9.92;100.00;102431.28;5115087;27;19930;-69
2022/04/03 10:46:02;;;;;;;;;;;;;;;9.91;100.00;102422.41;5131799;27;20010;-69
2022/04/03 10:48:28;;;;;;;;;;;;;;;9.74;100.00;102411.19;5116151;27;19923;-68
2022/04/03 10:50:56;;;;;;;;;;;;;;;9.75;100.00;102420.03;5135292;27;19926;-68
2022/04/03 10:53:26;;;;;;;;;;;;;;;9.12;100.00;102416.44;5130277;27;19920;-68
2022/04/03 10:55:57;;;;;;;;;;;;;;;8.89;100.00;102414.03;5121024;27;20374;-68
2022/04/03 10:58:23;;;;;;;;;;;;;;;9.06;100.00;102412.06;5121864;27;19915;-69
2022/04/03 11:00:49;;;;;;;;;;;;;;;9.12;100.00;102419.09;5134035;27;19915;-69
2022/04/03 11:03:14;;;;;;;;;;;;;;;8.77;100.00;102422.13;5131938;27;19916;-69
2022/04/03 11:05:45;;;;;;;;;;;;;;;8.84;100.00;102410.56;5134919;27;19980;-69
2022/04/03 11:08:11;;;;;;;;;;;;;;;9.21;100.00;102405.72;5116112;27;20059;-70
2022/04/03 11:10:58;;;;;;;;;;;;;;;9.40;100.00;102409.00;5129698;27;20006;-67
2022/04/03 11:13:29;;;;;;;;;;;;;;;9.06;100.00;102414.72;5119328;27;20287;-67
2022/04/03 11:15:55;;;;;;;;;;;;;;;8.63;100.00;102400.19;5114391;27;20027;-67
2022/04/03 11:18:34;;;;;;;;;;;;;;;8.47;100.00;102390.66;5125632;27;20269;-66
2022/04/03 11:21:18;;;;;;;;;;;;;;;8.06;100.00;102402.44;5115252;27;20290;-67
2022/04/03 11:23:48;;;;;;;;;;;;;;;8.02;100.00;102398.91;5132388;27;19915;-68
2022/04/03 11:26:15;;;;;;;;;;;;;;;9.77;100.00;102397.88;5115483;27;19923;-68
2022/04/03 11:28:42;;;;;;;;;;;;;;;11.96;100.00;102384.78;5132052;27;19927;-70
2022/04/03 11:31:07;;;;;;;;;;;;;;;12.52;100.00;102390.47;5134694;27;19920;-69
2022/04/03 11:33:33;;;;;;;;;;;;;;;14.24;100.00;102384.47;5133608;27;19939;-69
2022/04/03 11:36:17;;;;;;;;;;;;;;;16.24;100.00;102381.31;5126871;27;19924;-68
2022/04/03 11:38:44;;;;;;;;;;;;;;;17.28;100.00;102396.41;5134568;27;19916;-67
2022/04/03 11:41:10;;;;;;;;;;;;;;;18.06;100.00;102389.06;5125864;27;19919;-67
2022/04/03 11:43:35;;;;;;;;;;;;;;;16.51;100.00;102398.97;5126749;28;20423;-67
2022/04/03 11:46:02;;;;;;;;;;;;;;;17.39;100.00;102404.84;5124024;28;19959;-68
2022/04/03 11:48:29;;;;;;;;;;;;;;;15.58;100.00;102403.66;5130256;28;20012;-68
2022/04/03 11:51:07;;;;;;;;;;;;;;;14.43;100.00;102396.28;5125830;28;20409;-69
2022/04/03 11:53:33;;;;;;;;;;;;;;;15.37;100.00;102399.09;5120398;28;20455;-68
2022/04/03 11:56:05;;;;;;;;;;;;;;;16.11;100.00;102385.44;5128488;28;19968;-68
2022/04/03 11:58:31;;;;;;;;;;;;;;;18.49;100.00;102399.47;5110557;28;20402;-66
2022/04/03 12:00:57;;;;;;;;;;;;;;;18.14;100.00;102397.63;5131922;28;20014;-67
2022/04/03 12:03:27;;;;;;;;;;;;;;;17.65;100.00;102398.28;5124265;28;19919;-67
2022/04/03 12:06:08;;;;;;;;;;;;;;;17.49;100.00;102408.00;5095779;28;20017;-67
2022/04/03 12:08:40;;;;;;;;;;;;;;;18.78;100.00;102396.16;5111240;28;20385;-67
2022/04/03 12:11:15;;;;;;;;;;;;;;;19.79;100.00;102393.31;5111518;28;19930;-68
2022/04/03 12:13:41;;;;;;;;;;;;;;;20.37;100.00;102409.75;5129696;28;19959;-68
2022/04/03 12:16:07;;;;;;;;;;;;;;;20.68;100.00;102401.56;5127344;28;19951;-69
2022/04/03 12:18:51;;;;;;;;;;;;;;;20.12;100.00;102393.22;5112753;28;19920;-68
2022/04/03 12:21:17;;;;;;;;;;;;;;;19.78;100.00;102396.97;5115156;28;19963;-68
2022/04/03 12:24:21;;;;;;;;;;;;;;;19.84;100.00;102385.81;5115055;28;19992;-68
2022/04/03 12:26:47;;;;;;;;;;;;;;;19.17;100.00;102401.25;5083903;28;19926;-68
2022/04/03 12:29:13;;;;;;;;;;;;;;;19.73;100.00;102399.91;5086624;28;19916;-69
2022/04/03 12:31:38;;;;;;;;;;;;;;;19.98;100.00;102390.44;5101973;28;19920;-72
2022/04/03 12:34:15;;;;;;;;;;;;;;;20.96;100.00;102398.97;5104444;28;19920;-69